Time;durP1;ratioP1;P1;durP2;ratioP2;P2;SDS_P1;SDS_P2;PMS_P1;PMS_P2;Temp;Humidity;BMP_temperature;BMP_pressure;BME280_temperature;BME280_humidity;BME280_pressure;Samples;Min_cycle;Max_cycle;Signal;HPM_P1;HPM_P2
2022/08/18 00:01:49;;;;;;;6.78;6.22;;;18.20;99.90;;;;;;5076180;28;20214;-84
2022/08/18 00:04:16;;;;;;;5.72;5.30;;;18.20;99.90;;;;;;5076039;28;20217;-83
2022/08/18 00:06:43;;;;;;;6.55;6.05;;;18.20;99.90;;;;;;5076148;28;20201;-85
2022/08/18 00:09:11;;;;;;;7.32;6.68;;;18.20;99.90;;;;;;5076075;28;20197;-84
2022/08/18 00:11:42;;;;;;;6.60;6.03;;;18.20;99.90;;;;;;5076269;28;20212;-85
2022/08/18 00:14:13;;;;;;;7.05;6.55;;;18.20;99.90;;;;;;5075844;28;20337;-86
2022/08/18 00:16:41;;;;;;;8.55;7.72;;;18.20;99.90;;;;;;5076879;28;20234;-87
2022/08/18 00:19:08;;;;;;;8.73;7.88;;;18.20;99.90;;;;;;5060335;28;20202;-86
2022/08/18 00:21:35;;;;;;;6.95;6.35;;;18.20;99.90;;;;;;5055504;28;20221;-87
2022/08/18 00:24:02;;;;;;;8.07;7.22;;;18.20;99.90;;;;;;5073968;28;20561;-85
2022/08/18 00:26:29;;;;;;;7.25;6.43;;;18.20;99.90;;;;;;5075959;28;20189;-86
2022/08/18 00:28:56;;;;;;;6.15;5.65;;;18.20;99.90;;;;;;5075203;28;20207;-86
2022/08/18 00:31:23;;;;;;;6.15;5.65;;;18.20;99.90;;;;;;5058649;28;20202;-85
2022/08/18 00:33:51;;;;;;;7.15;6.53;;;18.20;99.90;;;;;;5056028;28;20233;-84
2022/08/18 00:36:18;;;;;;;6.60;6.10;;;18.20;99.90;;;;;;5075133;28;20228;-86
2022/08/18 00:38:45;;;;;;;7.55;5.88;;;18.20;99.90;;;;;;5075781;28;20208;-82
2022/08/18 00:41:12;;;;;;;5.72;5.32;;;18.20;99.90;;;;;;5082005;23;20221;-83
2022/08/18 00:43:43;;;;;;;6.13;5.57;;;18.20;99.90;;;;;;5073538;28;20205;-83
2022/08/18 00:46:16;;;;;;;5.18;4.82;;;18.10;99.90;;;;;;5054536;28;20206;-85
2022/08/18 00:48:43;;;;;;;6.57;5.97;;;18.10;99.90;;;;;;5055102;28;20233;-83
2022/08/18 00:51:16;;;;;;;5.82;5.22;;;18.10;99.90;;;;;;5068335;28;20291;-83
2022/08/18 00:53:48;;;;;;;4.82;4.47;;;18.10;99.90;;;;;;5074441;28;20220;-83
2022/08/18 00:56:23;;;;;;;5.20;4.80;;;18.10;99.90;;;;;;5074947;28;20743;-84
2022/08/18 00:58:53;;;;;;;5.78;5.32;;;18.10;99.90;;;;;;5074982;28;20232;-84
2022/08/18 01:01:23;;;;;;;5.50;5.00;;;18.00;99.90;;;;;;5074856;28;20225;-85
2022/08/18 01:03:53;;;;;;;5.72;4.70;;;18.00;99.90;;;;;;5067662;28;20198;-85
2022/08/18 01:06:31;;;;;;;6.13;5.47;;;18.00;99.90;;;;;;5054840;28;20640;-83
2022/08/18 01:08:58;;;;;;;5.40;4.90;;;17.90;99.90;;;;;;5074496;28;20200;-85
2022/08/18 01:11:25;;;;;;;6.15;5.65;;;17.90;99.90;;;;;;5078645;28;20193;-83
2022/08/18 01:13:52;;;;;;;6.03;5.43;;;17.90;99.90;;;;;;5077986;28;20205;-87
2022/08/18 01:21:57;;;;;;;6.63;6.10;;;17.80;99.90;;;;;;5074268;28;20279;-83
2022/08/18 01:27:11;;;;;;;7.22;6.13;;;17.80;99.90;;;;;;5073418;28;20181;-85
2022/08/18 01:29:38;;;;;;;6.95;6.25;;;17.80;99.90;;;;;;5073213;28;20205;-82
2022/08/18 01:32:05;;;;;;;7.72;6.18;;;17.70;99.90;;;;;;5073110;28;20259;-84
2022/08/18 01:34:32;;;;;;;10.80;6.22;;;17.70;99.90;;;;;;5073653;28;20225;-84
2022/08/18 01:36:59;;;;;;;6.72;6.13;;;17.70;99.90;;;;;;5060397;28;20581;-85
2022/08/18 01:39:27;;;;;;;6.50;5.88;;;17.70;99.90;;;;;;5053941;28;20236;-85
2022/08/18 01:41:54;;;;;;;5.93;5.35;;;17.70;99.90;;;;;;5053933;28;20896;-87
2022/08/18 01:44:21;;;;;;;7.28;5.53;;;17.70;99.90;;;;;;5053746;28;20281;-86
2022/08/18 01:46:49;;;;;;;6.53;5.93;;;17.70;99.90;;;;;;5054534;28;20206;-86
2022/08/18 01:49:18;;;;;;;6.13;5.53;;;17.70;99.90;;;;;;5053780;28;20201;-86
2022/08/18 01:51:47;;;;;;;6.13;5.63;;;17.70;99.90;;;;;;5054558;28;20194;-86
2022/08/18 01:54:15;;;;;;;6.10;5.50;;;17.60;99.90;;;;;;5054581;28;20498;-85
2022/08/18 01:56:44;;;;;;;7.20;5.93;;;17.60;99.90;;;;;;5053990;28;20207;-86
2022/08/18 01:59:13;;;;;;;6.35;5.75;;;17.60;99.90;;;;;;5054400;28;20288;-85
2022/08/18 02:01:41;;;;;;;6.70;6.10;;;17.60;99.90;;;;;;5053628;28;20253;-86
2022/08/18 02:04:11;;;;;;;5.85;5.32;;;17.60;99.90;;;;;;5054274;28;20201;-83
2022/08/18 02:06:39;;;;;;;6.50;5.90;;;17.60;99.90;;;;;;5054606;28;20205;-86
2022/08/18 02:09:06;;;;;;;5.85;5.35;;;17.60;99.90;;;;;;5054087;28;20190;-85
2022/08/18 02:11:33;;;;;;;5.47;5.07;;;17.50;99.90;;;;;;5054005;28;20711;-85
2022/08/18 02:14:01;;;;;;;6.25;5.75;;;17.50;99.90;;;;;;5053872;28;20204;-85
2022/08/18 02:16:28;;;;;;;6.70;5.90;;;17.50;99.90;;;;;;5058104;28;20201;-85
2022/08/18 02:18:55;;;;;;;6.55;5.90;;;17.40;99.90;;;;;;5073799;28;20352;-84
2022/08/18 02:21:22;;;;;;;6.00;5.43;;;17.40;99.90;;;;;;5073690;28;20239;-85
2022/08/18 02:23:50;;;;;;;5.90;5.40;;;17.40;99.90;;;;;;5074180;28;20300;-85
2022/08/18 02:26:18;;;;;;;6.35;5.85;;;17.40;99.90;;;;;;5074092;28;20212;-86
2022/08/18 02:28:45;;;;;;;6.20;5.60;;;17.40;99.90;;;;;;5058766;28;20517;-84
2022/08/18 02:31:17;;;;;;;6.30;5.70;;;17.30;99.90;;;;;;5054002;28;20228;-86
2022/08/18 02:33:44;;;;;;;6.25;5.75;;;17.30;99.90;;;;;;5033975;28;20587;-85
2022/08/18 02:36:11;;;;;;;6.40;5.60;;;17.30;99.90;;;;;;5033945;28;20741;-86
2022/08/18 02:38:39;;;;;;;6.25;5.53;;;17.30;99.90;;;;;;5044924;28;20205;-85
2022/08/18 02:41:09;;;;;;;6.43;5.82;;;17.30;99.90;;;;;;5058816;28;20805;-86
2022/08/18 02:43:36;;;;;;;5.72;5.32;;;17.30;99.90;;;;;;5049861;28;20202;-85
2022/08/18 02:46:05;;;;;;;6.10;5.50;;;17.30;99.90;;;;;;5052518;28;20197;-84
2022/08/18 02:48:34;;;;;;;6.25;5.65;;;17.30;99.90;;;;;;5051676;28;20598;-86
2022/08/18 02:51:04;;;;;;;5.65;5.25;;;17.30;99.90;;;;;;5054301;28;20213;-83
2022/08/18 02:53:31;;;;;;;6.22;5.70;;;17.30;99.90;;;;;;5050768;28;20210;-84
2022/08/18 02:56:12;;;;;;;6.22;5.72;;;17.20;99.90;;;;;;5035024;28;20215;-85
2022/08/18 02:58:39;;;;;;;6.32;5.82;;;17.20;99.90;;;;;;5052434;28;20203;-86
2022/08/18 03:01:06;;;;;;;7.68;6.97;;;17.30;99.90;;;;;;5072648;28;20251;-86
2022/08/18 03:03:35;;;;;;;7.70;7.00;;;17.30;99.90;;;;;;5055526;28;20629;-86
2022/08/18 03:06:02;;;;;;;8.95;7.70;;;17.30;99.90;;;;;;5062124;28;20293;-86
2022/08/18 03:08:29;;;;;;;6.82;6.22;;;17.30;99.90;;;;;;5057396;28;20280;-86
2022/08/18 03:10:55;;;;;;;7.07;6.53;;;17.40;99.90;;;;;;5051809;28;20643;-85
2022/08/18 03:13:22;;;;;;;7.00;6.40;;;17.40;99.90;;;;;;5055389;28;20288;-85
2022/08/18 03:15:49;;;;;;;6.45;5.95;;;17.40;99.90;;;;;;5057442;28;20198;-86
2022/08/18 03:18:16;;;;;;;6.55;6.05;;;17.40;99.90;;;;;;5057746;28;20205;-86
2022/08/18 03:20:45;;;;;;;6.30;5.80;;;17.40;99.90;;;;;;5057064;28;20210;-86
2022/08/18 03:23:12;;;;;;;5.35;4.93;;;17.50;99.90;;;;;;5046685;28;20858;-86
2022/08/18 03:25:45;;;;;;;6.55;5.95;;;17.50;99.90;;;;;;5037673;28;20535;-86
2022/08/18 03:28:12;;;;;;;5.55;5.15;;;17.50;99.90;;;;;;5072590;28;20288;-86
2022/08/18 03:30:39;;;;;;;5.95;5.45;;;17.50;99.90;;;;;;5077062;28;20194;-87
2022/08/18 03:33:06;;;;;;;5.97;5.45;;;17.50;99.90;;;;;;5077134;28;20203;-87
2022/08/18 03:35:35;;;;;;;6.22;5.75;;;17.60;99.90;;;;;;5077193;28;20217;-86
2022/08/18 03:38:03;;;;;;;6.18;5.68;;;17.60;99.90;;;;;;5076506;28;20375;-85
2022/08/18 03:40:31;;;;;;;6.00;5.60;;;17.70;99.90;;;;;;5065412;28;20205;-84
2022/08/18 03:42:58;;;;;;;6.25;5.68;;;17.70;99.90;;;;;;5056558;28;20656;-86
2022/08/18 03:45:27;;;;;;;6.43;5.93;;;17.70;99.90;;;;;;5056926;28;20659;-85
2022/08/18 03:47:54;;;;;;;7.15;6.55;;;17.70;99.90;;;;;;5056693;28;20235;-86
2022/08/18 03:50:24;;;;;;;6.68;6.07;;;17.70;99.90;;;;;;5056027;28;20205;-84
2022/08/18 03:52:51;;;;;;;8.73;7.35;;;17.70;99.90;;;;;;5057057;28;20195;-86
2022/08/18 03:55:20;;;;;;;8.38;7.15;;;17.80;99.90;;;;;;5057763;28;20198;-85
2022/08/18 03:57:47;;;;;;;6.20;5.57;;;17.80;99.90;;;;;;5056806;28;20603;-86
2022/08/18 04:00:14;;;;;;;6.18;5.68;;;17.80;99.90;;;;;;5056528;28;20609;-87
2022/08/18 04:02:41;;;;;;;6.05;5.57;;;17.80;99.90;;;;;;5041861;28;20222;-84
2022/08/18 04:05:11;;;;;;;6.00;5.50;;;17.80;99.90;;;;;;5035580;28;20294;-87
2022/08/18 04:07:37;;;;;;;6.28;5.70;;;17.90;99.90;;;;;;5035952;28;20198;-85
2022/08/18 04:10:05;;;;;;;6.65;6.07;;;17.80;99.90;;;;;;5035782;28;20203;-84
2022/08/18 04:12:35;;;;;;;6.80;6.30;;;17.90;99.90;;;;;;5053094;28;20202;-83
2022/08/18 04:15:02;;;;;;;6.40;5.90;;;17.90;99.90;;;;;;5055344;28;20194;-86
2022/08/18 04:17:29;;;;;;;7.18;6.50;;;17.90;99.90;;;;;;5055231;28;20198;-85
2022/08/18 04:19:56;;;;;;;6.13;5.68;;;17.90;99.90;;;;;;5055648;28;20292;-83
2022/08/18 04:22:25;;;;;;;6.75;6.25;;;17.90;99.90;;;;;;5055219;28;20637;-86
2022/08/18 04:24:52;;;;;;;7.47;6.50;;;17.90;99.90;;;;;;5056056;28;20225;-86
2022/08/18 04:27:20;;;;;;;6.50;5.90;;;17.90;99.90;;;;;;5055857;28;20469;-83
2022/08/18 04:29:48;;;;;;;6.68;6.07;;;18.00;99.90;;;;;;5067168;28;20474;-84
2022/08/18 04:32:16;;;;;;;5.30;4.80;;;18.00;99.90;;;;;;5069522;28;20193;-85
2022/08/18 04:34:43;;;;;;;5.20;4.70;;;18.00;99.90;;;;;;5071467;28;20245;-85
2022/08/18 04:37:10;;;;;;;5.20;4.80;;;18.00;99.90;;;;;;5056371;28;20210;-85
2022/08/18 04:39:37;;;;;;;5.38;4.90;;;18.00;99.90;;;;;;5055470;28;20197;-87
2022/08/18 04:42:04;;;;;;;5.35;4.78;;;18.00;99.90;;;;;;5055358;28;20256;-86
2022/08/18 04:44:31;;;;;;;5.38;4.57;;;18.00;99.90;;;;;;5056348;28;20206;-87
2022/08/18 04:47:01;;;;;;;6.03;4.55;;;18.10;99.90;;;;;;5075765;28;20200;-87
2022/08/18 04:49:30;;;;;;;5.55;4.28;;;18.10;99.90;;;;;;5075329;28;20692;-86
2022/08/18 04:54:40;;;;;;;6.03;4.43;;;18.10;99.90;;;;;;5013550;28;20195;-87
2022/08/18 04:57:09;;;;;;;4.70;4.35;;;18.20;99.90;;;;;;5046930;28;20599;-81
2022/08/18 04:59:37;;;;;;;6.38;4.82;;;18.20;99.90;;;;;;5055539;28;20201;-86
2022/08/18 05:02:07;;;;;;;6.90;6.20;;;18.20;99.90;;;;;;5055662;28;20221;-86
2022/08/18 05:04:36;;;;;;;6.75;5.93;;;18.20;99.90;;;;;;5055593;28;20284;-88
2022/08/18 05:07:03;;;;;;;6.22;5.47;;;18.20;99.90;;;;;;5055607;28;20247;-87
2022/08/18 05:09:30;;;;;;;6.40;5.80;;;18.20;99.90;;;;;;5055499;28;20268;-87
2022/08/18 05:11:57;;;;;;;6.22;5.63;;;18.20;99.90;;;;;;5054964;28;20208;-86
2022/08/18 05:14:24;;;;;;;7.03;6.28;;;18.20;99.90;;;;;;5054401;28;20293;-87
2022/08/18 05:16:51;;;;;;;7.43;6.43;;;18.20;99.90;;;;;;5055139;28;20204;-85
2022/08/18 05:19:21;;;;;;;7.60;6.50;;;18.30;99.90;;;;;;5055177;28;20598;-87
2022/08/18 05:21:48;;;;;;;6.95;6.35;;;18.30;99.90;;;;;;5055267;28;20261;-87
2022/08/18 05:24:16;;;;;;;7.40;6.70;;;18.30;99.90;;;;;;5053842;28;20221;-86
2022/08/18 05:26:44;;;;;;;8.00;7.20;;;18.30;99.90;;;;;;5054042;28;20209;-86
2022/08/18 05:29:11;;;;;;;8.18;7.22;;;18.40;99.90;;;;;;5054549;28;20202;-87
2022/08/18 05:31:39;;;;;;;7.63;6.93;;;18.40;99.90;;;;;;5054422;28;20293;-84
2022/08/18 05:34:06;;;;;;;9.23;8.43;;;18.40;99.90;;;;;;5055071;28;20217;-87
2022/08/18 05:36:57;;;;;;;7.18;6.60;;;18.40;99.90;;;;;;5055056;28;20264;-86
2022/08/18 05:39:28;;;;;;;9.25;8.35;;;18.40;99.90;;;;;;5054447;28;20228;-87
2022/08/18 05:42:04;;;;;;;8.43;7.63;;;18.40;99.90;;;;;;5054068;28;20633;-86
2022/08/18 05:44:34;;;;;;;10.13;8.23;;;18.40;99.90;;;;;;5053400;28;20544;-87
2022/08/18 05:47:05;;;;;;;9.27;8.38;;;18.40;99.90;;;;;;5034449;28;20253;-87
2022/08/18 05:49:35;;;;;;;8.38;7.50;;;18.50;99.90;;;;;;5042367;28;20210;-84
2022/08/18 05:52:09;;;;;;;7.93;7.22;;;18.50;99.90;;;;;;5045386;28;20203;-87
2022/08/18 05:57:31;;;;;;;8.27;7.57;;;18.60;99.90;;;;;;5034933;28;20186;-87
2022/08/18 05:59:58;;;;;;;8.43;7.30;;;18.60;99.90;;;;;;5049342;28;20223;-86
2022/08/18 06:02:32;;;;;;;7.13;6.53;;;18.60;99.90;;;;;;5054262;28;20227;-87
2022/08/18 06:05:03;;;;;;;7.35;6.65;;;18.60;99.90;;;;;;5061696;28;20200;-84
2022/08/18 06:07:37;;;;;;;7.15;6.45;;;18.60;99.90;;;;;;5073253;28;20267;-86
2022/08/18 06:10:10;;;;;;;6.47;5.88;;;18.60;99.90;;;;;;5061881;28;20293;-85
2022/08/18 06:12:41;;;;;;;6.45;5.95;;;18.60;99.90;;;;;;5057167;28;20204;-84
2022/08/18 06:15:15;;;;;;;7.05;6.45;;;18.60;99.90;;;;;;5054295;28;20256;-84
2022/08/18 06:18:09;;;;;;;6.43;5.82;;;18.70;99.90;;;;;;5053361;28;20251;-86
2022/08/18 06:20:46;;;;;;;5.85;5.40;;;18.70;99.90;;;;;;5033523;28;20203;-87
2022/08/18 06:23:24;;;;;;;5.85;5.35;;;18.80;99.90;;;;;;5036785;28;20588;-83
2022/08/18 06:26:01;;;;;;;6.88;6.28;;;18.80;99.90;;;;;;5053783;28;20669;-84
2022/08/18 06:28:35;;;;;;;7.50;6.85;;;18.90;99.90;;;;;;5053028;28;20196;-84
2022/08/18 06:31:12;;;;;;;7.65;6.95;;;18.90;99.90;;;;;;5052494;28;20208;-85
2022/08/18 06:33:52;;;;;;;6.00;5.50;;;19.00;99.90;;;;;;5045205;28;20182;-85
2022/08/18 06:36:35;;;;;;;6.57;5.97;;;19.00;99.90;;;;;;5053596;28;20221;-84
2022/08/18 06:39:12;;;;;;;6.13;5.63;;;19.00;99.90;;;;;;5058792;28;20200;-84
2022/08/18 06:41:42;;;;;;;5.25;4.85;;;19.10;99.90;;;;;;5057995;28;20708;-86
2022/08/18 06:44:12;;;;;;;5.45;5.00;;;19.10;99.90;;;;;;5057166;28;20963;-84
2022/08/18 06:46:44;;;;;;;5.50;5.10;;;19.20;99.90;;;;;;5064477;28;20296;-83
2022/08/18 06:49:18;;;;;;;5.68;5.18;;;19.20;99.90;;;;;;5077585;28;20193;-86
2022/08/18 06:51:45;;;;;;;5.05;4.57;;;19.30;99.90;;;;;;5077392;28;20211;-86
2022/08/18 06:54:29;;;;;;;4.53;4.22;;;19.30;99.90;;;;;;5069721;28;20233;-82
2022/08/18 06:56:57;;;;;;;4.68;4.28;;;19.30;99.90;;;;;;5057826;28;20186;-82
2022/08/18 06:59:28;;;;;;;5.10;4.70;;;19.40;99.90;;;;;;5043188;28;20210;-83
2022/08/18 07:02:00;;;;;;;5.85;4.68;;;19.40;99.90;;;;;;5038504;28;20282;-82
2022/08/18 07:04:38;;;;;;;4.72;4.32;;;19.50;99.90;;;;;;5057173;28;20198;-84
2022/08/18 07:07:30;;;;;;;4.60;4.25;;;19.60;99.90;;;;;;5056846;28;20585;-84
2022/08/18 07:10:00;;;;;;;4.65;4.25;;;19.60;99.90;;;;;;5042463;28;20504;-85
2022/08/18 07:12:29;;;;;;;4.72;4.43;;;19.70;99.90;;;;;;5056732;28;20206;-85
2022/08/18 07:14:58;;;;;;;4.90;4.50;;;19.70;99.90;;;;;;5056545;28;20616;-86
2022/08/18 07:17:28;;;;;;;4.40;4.00;;;19.80;99.90;;;;;;5056777;28;20288;-85
2022/08/18 07:19:58;;;;;;;4.55;4.20;;;19.90;99.90;;;;;;5056347;28;20281;-85
2022/08/18 07:22:25;;;;;;;4.13;3.83;;;20.00;99.90;;;;;;5057200;28;20226;-82
2022/08/18 07:24:55;;;;;;;4.75;4.35;;;20.00;99.90;;;;;;5057743;28;20198;-82
2022/08/18 07:27:38;;;;;;;3.85;3.55;;;20.10;99.90;;;;;;5058209;28;20210;-82
2022/08/18 07:30:09;;;;;;;2.90;2.70;;;20.20;99.90;;;;;;5057901;28;20242;-85
2022/08/18 07:32:43;;;;;;;5.57;4.55;;;20.20;99.90;;;;;;5056790;28;20194;-86
2022/08/18 07:35:12;;;;;;;3.05;2.78;;;20.30;99.90;;;;;;5057364;28;20287;-85
2022/08/18 07:37:47;;;;;;;3.80;3.20;;;20.30;99.90;;;;;;5057029;28;20201;-82
2022/08/18 07:40:23;;;;;;;3.33;3.10;;;20.40;99.90;;;;;;5056848;28;20190;-84
2022/08/18 07:42:58;;;;;;;3.22;2.88;;;20.50;99.90;;;;;;5063570;28;20236;-84
2022/08/18 07:45:31;;;;;;;3.30;2.92;;;20.50;99.90;;;;;;5076615;28;20637;-78
2022/08/18 07:48:11;;;;;;;2.80;2.50;;;20.50;99.90;;;;;;5073978;28;20268;-80
2022/08/18 07:50:44;;;;;;;3.00;2.80;;;20.50;99.90;;;;;;5055312;28;20284;-83
2022/08/18 07:53:22;;;;;;;4.22;3.33;;;20.50;99.90;;;;;;5056981;28;20210;-85
2022/08/18 07:55:54;;;;;;;3.42;3.13;;;20.60;99.90;;;;;;5057034;28;20186;-84
2022/08/18 07:58:29;;;;;;;3.53;3.22;;;20.70;99.90;;;;;;5057041;28;20194;-85
2022/08/18 08:01:03;;;;;;;6.22;4.20;;;20.80;99.90;;;;;;5057309;28;20201;-84
2022/08/18 08:03:41;;;;;;;4.38;3.30;;;20.80;99.90;;;;;;5037803;28;20222;-87
2022/08/18 08:06:14;;;;;;;3.53;3.20;;;20.90;99.90;;;;;;5051838;28;20183;-84
2022/08/18 08:08:44;;;;;;;3.95;3.55;;;20.90;99.90;;;;;;5055149;28;20195;-80
2022/08/18 08:11:25;;;;;;;4.38;3.78;;;21.00;99.90;;;;;;5049162;28;20229;-81
2022/08/18 08:14:06;;;;;;;4.07;3.55;;;21.10;99.90;;;;;;5041904;28;20500;-80
2022/08/18 08:16:47;;;;;;;5.57;3.13;;;21.10;99.90;;;;;;5056493;28;20280;-83
2022/08/18 08:19:45;;;;;;;6.07;2.78;;;21.10;99.90;;;;;;5056648;28;20280;-82
2022/08/18 08:22:19;;;;;;;4.57;3.20;;;21.10;99.90;;;;;;5057247;28;20212;-81
2022/08/18 08:24:55;;;;;;;5.45;3.30;;;21.30;99.90;;;;;;5055551;28;20232;-84
2022/08/18 08:27:33;;;;;;;3.90;3.40;;;21.80;99.90;;;;;;5055333;28;20620;-81
2022/08/18 08:30:07;;;;;;;5.18;3.00;;;22.20;99.90;;;;;;5056126;28;20198;-81
2022/08/18 08:32:36;;;;;;;5.95;2.78;;;22.30;99.90;;;;;;5074291;28;20589;-81
2022/08/18 08:35:10;;;;;;;4.32;2.55;;;22.50;99.90;;;;;;5073986;28;20223;-82
2022/08/18 08:37:43;;;;;;;3.08;2.58;;;22.80;99.90;;;;;;5059097;28;20220;-81
2022/08/18 08:40:16;;;;;;;4.65;2.30;;;22.90;99.90;;;;;;5053609;28;20204;-81
2022/08/18 08:42:50;;;;;;;4.00;2.42;;;23.00;99.90;;;;;;5053458;28;20333;-83
2022/08/18 08:45:24;;;;;;;4.00;2.55;;;23.00;99.90;;;;;;5054178;28;20194;-80
2022/08/18 08:47:59;;;;;;;4.50;2.72;;;23.00;99.90;;;;;;5054819;28;20285;-81
2022/08/18 08:50:29;;;;;;;4.40;2.92;;;22.90;99.90;;;;;;5054182;28;20203;-79
2022/08/18 08:53:00;;;;;;;3.30;2.58;;;22.80;99.90;;;;;;5053702;28;20198;-81
2022/08/18 08:55:31;;;;;;;5.85;2.85;;;22.70;99.90;;;;;;5054750;28;20212;-82
2022/08/18 08:58:12;;;;;;;4.65;2.78;;;22.60;99.90;;;;;;5053906;28;20194;-82
2022/08/18 09:00:43;;;;;;;4.80;3.25;;;22.50;99.90;;;;;;5053437;28;20198;-79
2022/08/18 09:03:24;;;;;;;5.78;2.97;;;22.50;99.90;;;;;;5054375;28;20226;-81
2022/08/18 09:06:00;;;;;;;7.05;2.78;;;22.70;99.90;;;;;;5053321;28;20202;-82
2022/08/18 09:08:42;;;;;;;4.13;2.70;;;23.00;99.90;;;;;;5053837;28;20273;-81
2022/08/18 09:11:48;;;;;;;3.80;2.80;;;23.30;99.90;;;;;;5054048;28;20209;-79
2022/08/18 09:14:39;;;;;;;3.08;2.60;;;23.60;99.90;;;;;;5052837;28;20202;-81
2022/08/18 09:17:27;;;;;;;4.28;2.47;;;23.90;99.90;;;;;;5009539;28;20613;-82
2022/08/18 09:20:09;;;;;;;4.70;2.45;;;24.40;99.90;;;;;;5053023;28;20277;-79
2022/08/18 09:22:47;;;;;;;4.05;2.10;;;24.70;99.90;;;;;;5053129;28;20219;-80
2022/08/18 09:25:31;;;;;;;5.55;2.50;;;24.70;99.90;;;;;;5053105;28;20712;-78
2022/08/18 09:28:10;;;;;;;5.03;2.42;;;24.60;99.90;;;;;;5052238;28;20221;-80
2022/08/18 09:30:43;;;;;;;3.30;2.25;;;24.50;99.90;;;;;;5050108;28;20654;-82
2022/08/18 09:33:44;;;;;;;3.78;2.30;;;24.50;99.90;;;;;;5033976;28;20195;-80
2022/08/18 09:36:28;;;;;;;2.33;1.85;;;24.40;99.90;;;;;;5033494;28;20253;-82
2022/08/18 09:41:50;;;;;;;3.78;2.22;;;24.60;99.90;;;;;;5052951;28;20237;-82
2022/08/18 09:44:50;;;;;;;3.25;2.10;;;24.70;99.90;;;;;;5053147;28;20228;-81
2022/08/18 09:47:52;;;;;;;2.67;1.75;;;24.80;99.90;;;;;;5053183;28;20273;-79
2022/08/18 09:50:50;;;;;;;2.00;1.80;;;25.00;99.90;;;;;;5035433;28;20197;-78
2022/08/18 09:53:51;;;;;;;2.92;1.90;;;25.10;99.90;;;;;;5052552;28;20305;-81
2022/08/18 09:56:38;;;;;;;2.65;1.92;;;25.10;99.90;;;;;;5051810;28;20252;-81
2022/08/18 09:59:05;;;;;;;3.70;2.00;;;25.10;99.90;;;;;;5052354;28;20665;-82
2022/08/18 10:01:36;;;;;;;2.88;2.00;;;24.90;99.90;;;;;;5052800;28;20212;-80
2022/08/18 10:04:32;;;;;;;3.17;1.77;;;24.60;99.90;;;;;;5052993;28;20218;-80
2022/08/18 10:07:29;;;;;;;3.42;1.90;;;24.40;99.90;;;;;;5052076;28;20188;-80
2022/08/18 10:10:13;;;;;;;2.63;1.92;;;24.10;99.90;;;;;;5071847;28;20534;-79
2022/08/18 10:12:58;;;;;;;4.88;1.95;;;24.00;99.90;;;;;;5056642;28;20600;-81
2022/08/18 10:15:47;;;;;;;4.07;1.90;;;23.60;99.90;;;;;;5052919;28;20190;-81
2022/08/18 10:18:36;;;;;;;2.58;1.60;;;23.40;99.90;;;;;;5052294;28;20489;-81
2022/08/18 10:21:13;;;;;;;2.08;1.67;;;23.50;99.90;;;;;;5052002;28;20229;-82
2022/08/18 10:23:58;;;;;;;3.58;2.42;;;23.50;99.90;;;;;;5051462;28;20225;-81
2022/08/18 10:27:08;;;;;;;2.88;2.15;;;23.50;99.90;;;;;;5052411;28;20301;-81
2022/08/18 10:29:59;;;;;;;3.47;1.95;;;23.50;99.90;;;;;;5051789;28;20207;-82
2022/08/18 10:32:42;;;;;;;4.60;2.03;;;23.60;99.90;;;;;;5052022;28;20201;-81
2022/08/18 10:35:52;;;;;;;4.13;2.50;;;23.70;99.90;;;;;;5040377;28;20233;-81
2022/08/18 10:38:35;;;;;;;6.32;2.05;;;23.60;99.90;;;;;;5019228;28;20209;-82
2022/08/18 10:41:09;;;;;;;3.88;2.20;;;23.60;99.90;;;;;;5052130;28;20265;-81
2022/08/18 10:43:42;;;;;;;2.85;2.10;;;23.70;99.90;;;;;;5051628;28;20249;-81
2022/08/18 10:46:18;;;;;;;3.10;1.80;;;23.70;99.90;;;;;;5051872;28;20587;-82
2022/08/18 10:48:59;;;;;;;4.85;2.13;;;23.70;99.90;;;;;;5051832;28;20554;-80
2022/08/18 10:51:33;;;;;;;4.60;2.47;;;23.80;99.90;;;;;;5051085;28;20200;-81
2022/08/18 10:54:10;;;;;;;3.20;2.30;;;24.00;99.90;;;;;;5051894;28;20562;-81
2022/08/18 10:56:46;;;;;;;3.55;1.95;;;24.30;99.90;;;;;;5052181;28;20189;-81
2022/08/18 10:59:24;;;;;;;2.78;1.73;;;24.50;99.90;;;;;;5051141;28;20210;-81
2022/08/18 11:02:09;;;;;;;4.95;2.00;;;24.70;99.90;;;;;;5052115;28;20514;-80
2022/08/18 11:04:42;;;;;;;3.72;1.70;;;24.90;99.90;;;;;;5051434;28;20222;-82
2022/08/18 11:07:14;;;;;;;3.30;2.20;;;25.10;99.90;;;;;;5050920;28;20661;-81
2022/08/18 11:09:43;;;;;;;6.28;2.08;;;25.40;99.90;;;;;;5051946;28;20247;-80
2022/08/18 11:12:14;;;;;;;4.38;1.98;;;25.60;99.90;;;;;;5050556;28;20206;-79
2022/08/18 11:15:09;;;;;;;3.30;2.03;;;25.50;99.90;;;;;;5051662;28;20246;-81
2022/08/18 11:17:47;;;;;;;5.65;2.00;;;25.40;99.90;;;;;;5038268;28;20217;-81
2022/08/18 11:20:17;;;;;;;2.90;2.20;;;25.30;99.90;;;;;;5031254;28;20202;-81
2022/08/18 11:22:53;;;;;;;3.95;1.98;;;25.20;99.90;;;;;;5031319;28;20207;-80
2022/08/18 11:25:28;;;;;;;3.17;1.70;;;25.20;99.90;;;;;;5034217;28;20210;-81
2022/08/18 11:27:59;;;;;;;2.53;2.03;;;25.20;99.90;;;;;;5034623;28;20197;-81
2022/08/18 11:30:29;;;;;;;2.30;1.80;;;25.20;99.90;;;;;;5036476;28;20198;-81
2022/08/18 11:32:57;;;;;;;3.72;2.00;;;25.30;99.90;;;;;;5054924;28;20625;-81
2022/08/18 11:35:29;;;;;;;3.35;2.05;;;25.30;99.90;;;;;;5055059;28;20218;-80
2022/08/18 11:37:59;;;;;;;2.97;2.03;;;25.40;99.90;;;;;;5055037;28;20289;-81
2022/08/18 11:40:34;;;;;;;2.47;1.95;;;25.40;99.90;;;;;;5053982;28;20213;-80
2022/08/18 11:43:05;;;;;;;3.30;1.63;;;25.40;99.90;;;;;;5055133;28;20316;-81
2022/08/18 11:45:36;;;;;;;3.55;2.10;;;25.30;99.90;;;;;;5055139;28;20206;-81
2022/08/18 11:48:19;;;;;;;2.90;2.17;;;25.30;99.90;;;;;;5054721;28;20194;-81
2022/08/18 11:50:49;;;;;;;2.92;1.90;;;25.30;99.90;;;;;;5054378;28;20229;-81
2022/08/18 11:53:23;;;;;;;4.13;2.03;;;25.30;99.90;;;;;;5054780;28;20240;-80
2022/08/18 11:56:05;;;;;;;2.88;2.00;;;25.40;99.90;;;;;;5053891;28;20194;-81
2022/08/18 11:58:42;;;;;;;3.20;1.95;;;25.50;99.90;;;;;;5054966;28;20213;-81
2022/08/18 12:01:09;;;;;;;2.67;1.98;;;25.50;99.90;;;;;;5053646;28;20200;-82
2022/08/18 12:03:45;;;;;;;3.20;1.92;;;25.70;99.90;;;;;;5062910;28;20616;-82
2022/08/18 12:06:20;;;;;;;4.47;1.98;;;25.80;99.90;;;;;;5074776;28;20569;-83
2022/08/18 12:08:59;;;;;;;3.60;1.92;;;25.80;99.90;;;;;;5073831;28;20272;-81
2022/08/18 12:11:29;;;;;;;2.75;1.80;;;26.10;99.90;;;;;;5054036;28;20292;-82
2022/08/18 12:14:06;;;;;;;2.97;1.75;;;26.30;99.90;;;;;;5053940;28;20200;-82
2022/08/18 12:16:37;;;;;;;2.20;2.00;;;26.50;99.90;;;;;;5053730;28;20201;-81
2022/08/18 12:19:05;;;;;;;2.15;1.88;;;26.60;99.90;;;;;;5054064;28;20618;-83
2022/08/18 12:21:33;;;;;;;2.67;2.20;;;26.70;99.90;;;;;;5054182;28;20229;-82
2022/08/18 12:24:00;;;;;;;4.03;2.10;;;26.70;99.90;;;;;;5033716;28;20230;-82
2022/08/18 12:26:27;;;;;;;2.97;1.77;;;27.00;99.90;;;;;;5039928;28;20212;-82
2022/08/18 12:28:53;;;;;;;2.28;1.83;;;27.20;99.90;;;;;;5054155;28;20225;-81
2022/08/18 12:31:22;;;;;;;3.65;2.35;;;27.20;99.90;;;;;;5053811;28;20195;-81
2022/08/18 12:33:49;;;;;;;3.15;2.10;;;27.10;99.90;;;;;;5054213;28;20198;-81
2022/08/18 12:36:15;;;;;;;3.33;2.28;;;26.90;99.90;;;;;;5052856;28;20214;-81
2022/08/18 12:38:44;;;;;;;3.60;2.05;;;26.60;99.90;;;;;;5054349;28;20205;-81
2022/08/18 12:41:14;;;;;;;3.22;2.25;;;26.40;99.90;;;;;;5054173;28;20225;-82
2022/08/18 12:43:41;;;;;;;1.88;1.50;;;26.20;99.90;;;;;;5053235;28;20206;-82
2022/08/18 12:46:08;;;;;;;3.80;2.33;;;26.20;99.90;;;;;;5053957;28;20681;-80
2022/08/18 12:48:38;;;;;;;4.18;1.92;;;26.00;99.90;;;;;;5053990;28;20292;-79
2022/08/18 12:51:05;;;;;;;2.88;2.30;;;25.90;99.90;;;;;;5053134;28;20587;-81
2022/08/18 12:53:32;;;;;;;4.00;2.47;;;25.80;99.90;;;;;;5053255;28;20210;-79
2022/08/18 12:56:00;;;;;;;3.60;2.10;;;25.70;99.90;;;;;;5053620;28;20198;-81
2022/08/18 12:58:28;;;;;;;2.83;1.95;;;25.70;99.90;;;;;;5053234;28;20190;-81
2022/08/18 13:00:55;;;;;;;3.15;2.42;;;25.50;99.90;;;;;;5034215;28;20212;-82
2022/08/18 13:03:22;;;;;;;3.88;2.30;;;25.50;99.90;;;;;;5034274;28;20203;-82
2022/08/18 13:05:50;;;;;;;6.25;2.20;;;25.50;99.90;;;;;;5032598;28;20232;-80
2022/08/18 13:08:19;;;;;;;8.68;2.97;;;25.50;99.90;;;;;;5035368;28;20210;-82
2022/08/18 13:10:47;;;;;;;5.80;2.53;;;25.40;99.90;;;;;;5053532;28;20290;-82
2022/08/18 13:13:15;;;;;;;6.88;2.17;;;25.30;99.90;;;;;;5052894;28;20206;-82
2022/08/18 13:15:42;;;;;;;4.85;2.58;;;25.20;99.90;;;;;;5053706;28;20498;-82
2022/08/18 13:18:09;;;;;;;3.17;1.83;;;25.10;99.90;;;;;;5053265;28;20313;-82
2022/08/18 13:20:36;;;;;;;3.50;1.90;;;25.00;99.90;;;;;;5052418;28;20240;-82
2022/08/18 13:23:05;;;;;;;6.88;2.60;;;24.90;99.90;;;;;;5054469;28;20230;-83
2022/08/18 13:25:32;;;;;;;5.18;2.30;;;24.90;99.90;;;;;;5053678;28;20313;-80
2022/08/18 13:27:59;;;;;;;4.68;1.88;;;24.80;99.90;;;;;;5053864;28;20202;-84
2022/08/18 13:30:26;;;;;;;5.43;2.55;;;24.80;99.90;;;;;;5053570;28;20301;-82
2022/08/18 13:32:53;;;;;;;5.78;2.00;;;24.80;99.90;;;;;;5052389;28;20208;-81